sensor_id;sensor_type;location;lat;lon;timestamp;temperature;humidity
8103;DHT22;4094;49.948;11.574;2022-09-21T00:00:11;11.50;70.40
8103;DHT22;4094;49.948;11.574;2022-09-21T00:02:42;11.60;70.60
8103;DHT22;4094;49.948;11.574;2022-09-21T00:05:11;11.60;70.60
8103;DHT22;4094;49.948;11.574;2022-09-21T00:07:41;11.60;70.70
8103;DHT22;4094;49.948;11.574;2022-09-21T00:10:10;11.50;70.20
8103;DHT22;4094;49.948;11.574;2022-09-21T00:12:39;11.50;70.10
8103;DHT22;4094;49.948;11.574;2022-09-21T00:15:09;11.50;69.60
8103;DHT22;4094;49.948;11.574;2022-09-21T00:17:38;11.40;69.50
8103;DHT22;4094;49.948;11.574;2022-09-21T00:20:09;11.40;69.60
8103;DHT22;4094;49.948;11.574;2022-09-21T00:22:39;11.30;69.80
8103;DHT22;4094;49.948;11.574;2022-09-21T00:25:09;11.20;69.70
8103;DHT22;4094;49.948;11.574;2022-09-21T00:27:39;11.10;69.70
8103;DHT22;4094;49.948;11.574;2022-09-21T00:30:09;11.10;69.50
8103;DHT22;4094;49.948;11.574;2022-09-21T00:32:38;11.00;69.90
8103;DHT22;4094;49.948;11.574;2022-09-21T00:35:09;10.90;70.30
8103;DHT22;4094;49.948;11.574;2022-09-21T00:37:38;10.90;70.70
8103;DHT22;4094;49.948;11.574;2022-09-21T00:40:08;10.90;71.00
8103;DHT22;4094;49.948;11.574;2022-09-21T00:42:37;10.90;71.00
8103;DHT22;4094;49.948;11.574;2022-09-21T00:45:09;11.00;71.10
8103;DHT22;4094;49.948;11.574;2022-09-21T00:47:49;11.00;71.20
8103;DHT22;4094;49.948;11.574;2022-09-21T00:50:23;11.00;71.10
8103;DHT22;4094;49.948;11.574;2022-09-21T00:52:55;11.00;71.00
8103;DHT22;4094;49.948;11.574;2022-09-21T00:55:28;11.00;70.80
8103;DHT22;4094;49.948;11.574;2022-09-21T00:58:00;11.00;70.90
8103;DHT22;4094;49.948;11.574;2022-09-21T01:00:31;11.00;71.00
8103;DHT22;4094;49.948;11.574;2022-09-21T01:03:00;11.00;71.10
8103;DHT22;4094;49.948;11.574;2022-09-21T01:05:30;11.00;71.20
8103;DHT22;4094;49.948;11.574;2022-09-21T01:08:02;11.00;71.20
8103;DHT22;4094;49.948;11.574;2022-09-21T01:10:40;11.00;71.20
8103;DHT22;4094;49.948;11.574;2022-09-21T01:13:21;11.00;71.30
8103;DHT22;4094;49.948;11.574;2022-09-21T01:15:57;11.00;71.30
8103;DHT22;4094;49.948;11.574;2022-09-21T01:18:35;10.90;71.10
8103;DHT22;4094;49.948;11.574;2022-09-21T01:21:18;10.90;71.00
8103;DHT22;4094;49.948;11.574;2022-09-21T01:30:04;11.00;71.20
8103;DHT22;4094;49.948;11.574;2022-09-21T01:32:39;10.90;70.60
8103;DHT22;4094;49.948;11.574;2022-09-21T01:35:12;10.90;70.70
8103;DHT22;4094;49.948;11.574;2022-09-21T01:37:47;10.80;70.90
8103;DHT22;4094;49.948;11.574;2022-09-21T01:40:21;10.80;71.10
8103;DHT22;4094;49.948;11.574;2022-09-21T01:42:53;10.70;71.60
8103;DHT22;4094;49.948;11.574;2022-09-21T01:45:27;10.70;71.40
8103;DHT22;4094;49.948;11.574;2022-09-21T01:47:59;10.70;71.70
8103;DHT22;4094;49.948;11.574;2022-09-21T01:50:30;10.70;72.00
8103;DHT22;4094;49.948;11.574;2022-09-21T01:53:04;10.60;72.10
8103;DHT22;4094;49.948;11.574;2022-09-21T01:55:39;10.70;72.10
8103;DHT22;4094;49.948;11.574;2022-09-21T01:58:15;10.70;72.10
8103;DHT22;4094;49.948;11.574;2022-09-21T02:00:49;10.70;72.00
8103;DHT22;4094;49.948;11.574;2022-09-21T02:03:23;10.70;71.30
8103;DHT22;4094;49.948;11.574;2022-09-21T02:05:55;10.70;71.30
8103;DHT22;4094;49.948;11.574;2022-09-21T02:08:25;10.70;71.50
8103;DHT22;4094;49.948;11.574;2022-09-21T02:10:54;10.70;72.40
8103;DHT22;4094;49.948;11.574;2022-09-21T02:13:24;10.70;71.60
8103;DHT22;4094;49.948;11.574;2022-09-21T02:16:14;10.70;71.50
8103;DHT22;4094;49.948;11.574;2022-09-21T02:18:55;10.60;71.00
8103;DHT22;4094;49.948;11.574;2022-09-21T02:21:30;10.60;71.30
8103;DHT22;4094;49.948;11.574;2022-09-21T02:24:07;10.60;71.00
8103;DHT22;4094;49.948;11.574;2022-09-21T02:26:43;10.60;71.10
8103;DHT22;4094;49.948;11.574;2022-09-21T02:29:18;10.60;71.30
8103;DHT22;4094;49.948;11.574;2022-09-21T02:31:53;10.60;71.50
8103;DHT22;4094;49.948;11.574;2022-09-21T02:34:27;10.60;71.50
8103;DHT22;4094;49.948;11.574;2022-09-21T02:37:02;10.60;71.70
8103;DHT22;4094;49.948;11.574;2022-09-21T02:39:44;10.60;71.50
8103;DHT22;4094;49.948;11.574;2022-09-21T02:42:18;10.60;72.30
8103;DHT22;4094;49.948;11.574;2022-09-21T02:44:54;10.60;72.10
8103;DHT22;4094;49.948;11.574;2022-09-21T02:47:28;10.50;71.40
8103;DHT22;4094;49.948;11.574;2022-09-21T02:50:03;10.50;71.40
8103;DHT22;4094;49.948;11.574;2022-09-21T02:52:33;10.50;71.50
8103;DHT22;4094;49.948;11.574;2022-09-21T02:55:03;10.50;71.50
8103;DHT22;4094;49.948;11.574;2022-09-21T02:57:34;10.50;71.40
8103;DHT22;4094;49.948;11.574;2022-09-21T03:00:05;10.50;71.50
8103;DHT22;4094;49.948;11.574;2022-09-21T03:02:36;10.50;71.20
8103;DHT22;4094;49.948;11.574;2022-09-21T03:05:07;10.50;70.90
8103;DHT22;4094;49.948;11.574;2022-09-21T03:07:37;10.50;71.00
8103;DHT22;4094;49.948;11.574;2022-09-21T03:10:06;10.50;71.10
8103;DHT22;4094;49.948;11.574;2022-09-21T03:12:36;10.50;71.10
8103;DHT22;4094;49.948;11.574;2022-09-21T03:15:05;10.50;71.10
8103;DHT22;4094;49.948;11.574;2022-09-21T03:17:36;10.50;71.00
8103;DHT22;4094;49.948;11.574;2022-09-21T03:20:05;10.50;70.50
8103;DHT22;4094;49.948;11.574;2022-09-21T03:22:34;10.50;70.30
8103;DHT22;4094;49.948;11.574;2022-09-21T03:25:04;10.50;70.50
8103;DHT22;4094;49.948;11.574;2022-09-21T03:27:33;10.50;71.00
8103;DHT22;4094;49.948;11.574;2022-09-21T03:30:03;10.40;70.80
8103;DHT22;4094;49.948;11.574;2022-09-21T03:32:32;10.40;70.80
8103;DHT22;4094;49.948;11.574;2022-09-21T03:35:03;10.40;70.50
8103;DHT22;4094;49.948;11.574;2022-09-21T03:37:32;10.40;70.30
8103;DHT22;4094;49.948;11.574;2022-09-21T03:40:09;10.40;70.10
8103;DHT22;4094;49.948;11.574;2022-09-21T03:42:41;10.40;70.00
8103;DHT22;4094;49.948;11.574;2022-09-21T03:45:11;10.40;70.00
8103;DHT22;4094;49.948;11.574;2022-09-21T03:47:41;10.40;70.10
8103;DHT22;4094;49.948;11.574;2022-09-21T03:50:11;10.40;70.20
8103;DHT22;4094;49.948;11.574;2022-09-21T03:52:40;10.40;70.10
8103;DHT22;4094;49.948;11.574;2022-09-21T03:55:09;10.30;69.90
8103;DHT22;4094;49.948;11.574;2022-09-21T03:57:39;10.30;69.90
8103;DHT22;4094;49.948;11.574;2022-09-21T04:00:09;10.30;70.00
8103;DHT22;4094;49.948;11.574;2022-09-21T04:02:39;10.30;69.70
8103;DHT22;4094;49.948;11.574;2022-09-21T04:05:11;10.20;69.20
8103;DHT22;4094;49.948;11.574;2022-09-21T04:07:42;10.20;69.20
8103;DHT22;4094;49.948;11.574;2022-09-21T04:10:15;10.10;69.60
8103;DHT22;4094;49.948;11.574;2022-09-21T04:12:45;10.00;70.00
8103;DHT22;4094;49.948;11.574;2022-09-21T04:15:16;10.00;70.10
8103;DHT22;4094;49.948;11.574;2022-09-21T04:17:49;10.00;70.20
8103;DHT22;4094;49.948;11.574;2022-09-21T04:20:20;10.00;70.10
8103;DHT22;4094;49.948;11.574;2022-09-21T04:22:50;10.00;70.20
8103;DHT22;4094;49.948;11.574;2022-09-21T04:25:19;10.00;70.20
8103;DHT22;4094;49.948;11.574;2022-09-21T04:27:48;10.00;70.20
8103;DHT22;4094;49.948;11.574;2022-09-21T04:30:18;10.00;70.20
8103;DHT22;4094;49.948;11.574;2022-09-21T04:32:47;10.00;70.10
8103;DHT22;4094;49.948;11.574;2022-09-21T04:35:16;10.00;70.30
8103;DHT22;4094;49.948;11.574;2022-09-21T04:37:47;10.00;70.40
8103;DHT22;4094;49.948;11.574;2022-09-21T04:40:16;10.00;70.60
8103;DHT22;4094;49.948;11.574;2022-09-21T04:42:50;10.00;70.70
8103;DHT22;4094;49.948;11.574;2022-09-21T04:45:19;10.00;70.70
8103;DHT22;4094;49.948;11.574;2022-09-21T04:47:49;10.10;70.50
8103;DHT22;4094;49.948;11.574;2022-09-21T04:50:18;10.00;70.40
8103;DHT22;4094;49.948;11.574;2022-09-21T04:52:48;10.00;70.40
8103;DHT22;4094;49.948;11.574;2022-09-21T04:55:17;10.10;70.50
8103;DHT22;4094;49.948;11.574;2022-09-21T04:57:46;10.10;70.40
8103;DHT22;4094;49.948;11.574;2022-09-21T05:00:15;10.10;70.50
8103;DHT22;4094;49.948;11.574;2022-09-21T05:02:45;10.10;70.50
8103;DHT22;4094;49.948;11.574;2022-09-21T05:05:14;10.10;70.80
8103;DHT22;4094;49.948;11.574;2022-09-21T05:07:43;10.10;71.00
8103;DHT22;4094;49.948;11.574;2022-09-21T05:10:15;10.10;71.10
8103;DHT22;4094;49.948;11.574;2022-09-21T05:12:43;10.00;70.80
8103;DHT22;4094;49.948;11.574;2022-09-21T05:15:13;10.00;71.10
8103;DHT22;4094;49.948;11.574;2022-09-21T05:17:42;10.00;71.00
8103;DHT22;4094;49.948;11.574;2022-09-21T05:20:11;10.00;70.70
8103;DHT22;4094;49.948;11.574;2022-09-21T05:22:40;10.00;70.40
8103;DHT22;4094;49.948;11.574;2022-09-21T05:25:09;10.00;70.40
8103;DHT22;4094;49.948;11.574;2022-09-21T05:27:41;10.00;70.70
8103;DHT22;4094;49.948;11.574;2022-09-21T05:30:11;9.90;70.90
8103;DHT22;4094;49.948;11.574;2022-09-21T05:32:46;10.00;71.00
8103;DHT22;4094;49.948;11.574;2022-09-21T05:35:21;9.90;71.00
8103;DHT22;4094;49.948;11.574;2022-09-21T05:37:56;10.00;71.20
8103;DHT22;4094;49.948;11.574;2022-09-21T05:40:27;10.00;71.20
8103;DHT22;4094;49.948;11.574;2022-09-21T05:42:58;10.00;71.10
8103;DHT22;4094;49.948;11.574;2022-09-21T05:45:28;10.00;70.50
8103;DHT22;4094;49.948;11.574;2022-09-21T05:48:05;10.10;70.60
8103;DHT22;4094;49.948;11.574;2022-09-21T05:50:43;10.00;70.20
8103;DHT22;4094;49.948;11.574;2022-09-21T05:53:36;10.00;70.10
8103;DHT22;4094;49.948;11.574;2022-09-21T05:56:12;10.00;70.10
8103;DHT22;4094;49.948;11.574;2022-09-21T05:58:53;9.90;70.30
8103;DHT22;4094;49.948;11.574;2022-09-21T06:01:35;9.90;70.70
8103;DHT22;4094;49.948;11.574;2022-09-21T06:04:07;9.90;70.70
8103;DHT22;4094;49.948;11.574;2022-09-21T06:06:38;10.00;70.50
8103;DHT22;4094;49.948;11.574;2022-09-21T06:09:07;9.90;70.10
8103;DHT22;4094;49.948;11.574;2022-09-21T06:11:36;9.90;70.10
8103;DHT22;4094;49.948;11.574;2022-09-21T06:14:06;9.90;70.10
8103;DHT22;4094;49.948;11.574;2022-09-21T06:16:36;9.90;70.00
8103;DHT22;4094;49.948;11.574;2022-09-21T06:19:05;9.80;70.00
8103;DHT22;4094;49.948;11.574;2022-09-21T06:21:35;9.80;70.20
8103;DHT22;4094;49.948;11.574;2022-09-21T06:24:04;9.80;70.10
8103;DHT22;4094;49.948;11.574;2022-09-21T06:26:34;9.70;70.10
8103;DHT22;4094;49.948;11.574;2022-09-21T06:29:03;9.70;70.40
8103;DHT22;4094;49.948;11.574;2022-09-21T06:31:34;9.70;70.60
8103;DHT22;4094;49.948;11.574;2022-09-21T06:34:03;9.70;70.80
8103;DHT22;4094;49.948;11.574;2022-09-21T06:36:32;9.70;70.50
8103;DHT22;4094;49.948;11.574;2022-09-21T06:39:01;9.80;70.50
8103;DHT22;4094;49.948;11.574;2022-09-21T06:41:30;9.80;70.50
8103;DHT22;4094;49.948;11.574;2022-09-21T06:43:59;9.80;71.00
8103;DHT22;4094;49.948;11.574;2022-09-21T06:46:28;9.80;71.20
8103;DHT22;4094;49.948;11.574;2022-09-21T06:48:59;9.80;71.40
8103;DHT22;4094;49.948;11.574;2022-09-21T06:51:28;9.90;71.10
8103;DHT22;4094;49.948;11.574;2022-09-21T06:53:57;9.90;71.00
8103;DHT22;4094;49.948;11.574;2022-09-21T06:56:26;9.90;70.80
8103;DHT22;4094;49.948;11.574;2022-09-21T06:58:55;9.90;70.80
8103;DHT22;4094;49.948;11.574;2022-09-21T07:01:24;9.90;70.80
8103;DHT22;4094;49.948;11.574;2022-09-21T07:03:53;9.90;70.80
8103;DHT22;4094;49.948;11.574;2022-09-21T07:06:24;9.90;71.10
8103;DHT22;4094;49.948;11.574;2022-09-21T07:08:53;10.00;71.50
8103;DHT22;4094;49.948;11.574;2022-09-21T07:11:41;10.00;71.60
8103;DHT22;4094;49.948;11.574;2022-09-21T07:14:10;10.00;71.70
8103;DHT22;4094;49.948;11.574;2022-09-21T07:16:41;10.10;71.90
8103;DHT22;4094;49.948;11.574;2022-09-21T07:19:10;10.10;71.90
8103;DHT22;4094;49.948;11.574;2022-09-21T07:21:40;10.10;71.70
8103;DHT22;4094;49.948;11.574;2022-09-21T07:24:09;10.20;71.90
8103;DHT22;4094;49.948;11.574;2022-09-21T07:26:39;10.30;71.70
8103;DHT22;4094;49.948;11.574;2022-09-21T07:29:08;10.30;71.60
8103;DHT22;4094;49.948;11.574;2022-09-21T07:31:37;10.40;71.50
8103;DHT22;4094;49.948;11.574;2022-09-21T07:34:06;10.40;71.20
8103;DHT22;4094;49.948;11.574;2022-09-21T07:36:35;10.40;70.90
8103;DHT22;4094;49.948;11.574;2022-09-21T07:39:07;10.50;70.80
8103;DHT22;4094;49.948;11.574;2022-09-21T07:41:37;10.50;70.60
8103;DHT22;4094;49.948;11.574;2022-09-21T07:44:06;10.50;70.50
8103;DHT22;4094;49.948;11.574;2022-09-21T07:46:35;10.50;70.50
8103;DHT22;4094;49.948;11.574;2022-09-21T07:49:10;10.50;70.50
8103;DHT22;4094;49.948;11.574;2022-09-21T07:51:41;10.50;70.40
8103;DHT22;4094;49.948;11.574;2022-09-21T07:54:12;10.50;70.40
8103;DHT22;4094;49.948;11.574;2022-09-21T07:56:42;10.40;70.70
8103;DHT22;4094;49.948;11.574;2022-09-21T07:59:32;10.40;70.90
8103;DHT22;4094;49.948;11.574;2022-09-21T08:02:00;10.50;71.10
8103;DHT22;4094;49.948;11.574;2022-09-21T08:04:29;10.50;71.00
8103;DHT22;4094;49.948;11.574;2022-09-21T08:06:59;10.50;70.80
8103;DHT22;4094;49.948;11.574;2022-09-21T08:09:29;10.50;70.40
8103;DHT22;4094;49.948;11.574;2022-09-21T08:11:58;10.50;70.30
8103;DHT22;4094;49.948;11.574;2022-09-21T08:14:28;10.50;70.50
8103;DHT22;4094;49.948;11.574;2022-09-21T08:16:57;10.50;70.70
8103;DHT22;4094;49.948;11.574;2022-09-21T08:19:26;10.50;70.50
8103;DHT22;4094;49.948;11.574;2022-09-21T08:21:55;10.60;70.70
8103;DHT22;4094;49.948;11.574;2022-09-21T08:24:25;10.60;71.40
8103;DHT22;4094;49.948;11.574;2022-09-21T08:26:55;10.60;71.00
8103;DHT22;4094;49.948;11.574;2022-09-21T08:29:25;10.60;70.90
8103;DHT22;4094;49.948;11.574;2022-09-21T08:31:55;10.60;70.80
8103;DHT22;4094;49.948;11.574;2022-09-21T08:34:24;10.60;71.30
8103;DHT22;4094;49.948;11.574;2022-09-21T08:36:53;10.60;71.00
8103;DHT22;4094;49.948;11.574;2022-09-21T08:39:22;10.70;71.20
8103;DHT22;4094;49.948;11.574;2022-09-21T08:42:05;10.70;71.80
8103;DHT22;4094;49.948;11.574;2022-09-21T08:44:40;10.80;71.50
8103;DHT22;4094;49.948;11.574;2022-09-21T08:47:13;10.90;71.20
8103;DHT22;4094;49.948;11.574;2022-09-21T08:49:48;10.90;71.10
8103;DHT22;4094;49.948;11.574;2022-09-21T08:52:19;11.00;70.90
8103;DHT22;4094;49.948;11.574;2022-09-21T08:54:54;11.00;70.70
8103;DHT22;4094;49.948;11.574;2022-09-21T08:57:31;11.10;71.20
8103;DHT22;4094;49.948;11.574;2022-09-21T09:00:01;11.20;71.90
8103;DHT22;4094;49.948;11.574;2022-09-21T09:02:42;11.40;72.50
8103;DHT22;4094;49.948;11.574;2022-09-21T09:05:24;11.50;72.50
8103;DHT22;4094;49.948;11.574;2022-09-21T09:08:12;11.70;72.30
8103;DHT22;4094;49.948;11.574;2022-09-21T09:10:59;11.90;72.00
8103;DHT22;4094;49.948;11.574;2022-09-21T09:13:45;12.10;71.40
8103;DHT22;4094;49.948;11.574;2022-09-21T09:16:24;12.20;70.70
8103;DHT22;4094;49.948;11.574;2022-09-21T09:19:04;12.30;70.20
8103;DHT22;4094;49.948;11.574;2022-09-21T09:21:38;12.40;70.70
8103;DHT22;4094;49.948;11.574;2022-09-21T09:24:11;12.50;70.80
8103;DHT22;4094;49.948;11.574;2022-09-21T09:26:45;12.60;70.50
8103;DHT22;4094;49.948;11.574;2022-09-21T09:29:21;12.80;70.20
8103;DHT22;4094;49.948;11.574;2022-09-21T09:31:53;12.90;70.00
8103;DHT22;4094;49.948;11.574;2022-09-21T09:34:27;13.00;70.20
8103;DHT22;4094;49.948;11.574;2022-09-21T09:37:00;13.10;69.80
8103;DHT22;4094;49.948;11.574;2022-09-21T09:39:33;13.10;69.70
8103;DHT22;4094;49.948;11.574;2022-09-21T09:42:31;13.20;69.80
8103;DHT22;4094;49.948;11.574;2022-09-21T09:45:11;13.30;70.30
8103;DHT22;4094;49.948;11.574;2022-09-21T09:47:53;13.40;70.00
8103;DHT22;4094;49.948;11.574;2022-09-21T09:50:28;13.50;69.40
8103;DHT22;4094;49.948;11.574;2022-09-21T09:53:03;13.60;69.70
8103;DHT22;4094;49.948;11.574;2022-09-21T09:55:37;13.60;69.60
8103;DHT22;4094;49.948;11.574;2022-09-21T09:58:16;13.70;69.40
8103;DHT22;4094;49.948;11.574;2022-09-21T10:00:50;13.90;69.00
8103;DHT22;4094;49.948;11.574;2022-09-21T10:03:21;13.90;68.80
8103;DHT22;4094;49.948;11.574;2022-09-21T10:05:51;14.00;69.10
8103;DHT22;4094;49.948;11.574;2022-09-21T10:08:30;14.10;68.90
8103;DHT22;4094;49.948;11.574;2022-09-21T10:11:10;14.20;68.30
8103;DHT22;4094;49.948;11.574;2022-09-21T10:13:40;14.30;68.40
8103;DHT22;4094;49.948;11.574;2022-09-21T10:16:13;14.40;68.60
8103;DHT22;4094;49.948;11.574;2022-09-21T10:18:46;14.40;68.70
8103;DHT22;4094;49.948;11.574;2022-09-21T10:21:17;14.50;68.50
8103;DHT22;4094;49.948;11.574;2022-09-21T10:23:50;14.70;68.40
8103;DHT22;4094;49.948;11.574;2022-09-21T10:26:20;14.80;68.30
8103;DHT22;4094;49.948;11.574;2022-09-21T10:28:57;14.90;68.20
8103;DHT22;4094;49.948;11.574;2022-09-21T10:31:29;15.00;67.90
8103;DHT22;4094;49.948;11.574;2022-09-21T10:34:09;15.10;67.90
8103;DHT22;4094;49.948;11.574;2022-09-21T10:36:41;15.20;67.20
8103;DHT22;4094;49.948;11.574;2022-09-21T10:39:22;15.30;67.40
8103;DHT22;4094;49.948;11.574;2022-09-21T10:41:55;15.40;67.10
8103;DHT22;4094;49.948;11.574;2022-09-21T10:44:28;15.50;66.90
8103;DHT22;4094;49.948;11.574;2022-09-21T10:47:16;15.50;65.60
8103;DHT22;4094;49.948;11.574;2022-09-21T10:49:48;15.70;65.30
8103;DHT22;4094;49.948;11.574;2022-09-21T10:52:20;15.70;65.40
8103;DHT22;4094;49.948;11.574;2022-09-21T10:54:52;15.80;65.70
8103;DHT22;4094;49.948;11.574;2022-09-21T10:57:23;15.90;65.90
8103;DHT22;4094;49.948;11.574;2022-09-21T10:59:53;16.00;65.50
8103;DHT22;4094;49.948;11.574;2022-09-21T11:02:34;16.10;65.80
8103;DHT22;4094;49.948;11.574;2022-09-21T11:05:10;16.30;64.90
8103;DHT22;4094;49.948;11.574;2022-09-21T11:07:46;16.40;65.10
8103;DHT22;4094;49.948;11.574;2022-09-21T11:10:20;16.50;65.10
8103;DHT22;4094;49.948;11.574;2022-09-21T11:12:58;16.60;65.00
8103;DHT22;4094;49.948;11.574;2022-09-21T11:15:39;16.70;64.50
8103;DHT22;4094;49.948;11.574;2022-09-21T11:18:29;16.80;63.90
8103;DHT22;4094;49.948;11.574;2022-09-21T11:21:07;16.90;64.00
8103;DHT22;4094;49.948;11.574;2022-09-21T11:23:45;16.90;62.60
8103;DHT22;4094;49.948;11.574;2022-09-21T11:26:20;16.90;62.10
8103;DHT22;4094;49.948;11.574;2022-09-21T11:28:57;17.00;62.10
8103;DHT22;4094;49.948;11.574;2022-09-21T11:31:51;17.00;62.10
8103;DHT22;4094;49.948;11.574;2022-09-21T11:34:41;17.10;60.90
8103;DHT22;4094;49.948;11.574;2022-09-21T11:37:19;17.20;61.40
8103;DHT22;4094;49.948;11.574;2022-09-21T11:40:05;17.30;60.60
8103;DHT22;4094;49.948;11.574;2022-09-21T11:42:47;17.40;58.90
8103;DHT22;4094;49.948;11.574;2022-09-21T11:45:34;17.40;59.00
8103;DHT22;4094;49.948;11.574;2022-09-21T11:48:15;17.50;58.70
8103;DHT22;4094;49.948;11.574;2022-09-21T11:50:59;17.70;59.30
8103;DHT22;4094;49.948;11.574;2022-09-21T11:53:41;17.90;60.00
8103;DHT22;4094;49.948;11.574;2022-09-21T11:56:28;18.20;59.90
8103;DHT22;4094;49.948;11.574;2022-09-21T11:59:08;18.60;59.90
8103;DHT22;4094;49.948;11.574;2022-09-21T12:01:59;19.00;59.00
8103;DHT22;4094;49.948;11.574;2022-09-21T12:04:42;19.50;56.10
8103;DHT22;4094;49.948;11.574;2022-09-21T12:07:31;19.90;56.40
8103;DHT22;4094;49.948;11.574;2022-09-21T12:10:21;20.10;55.90
8103;DHT22;4094;49.948;11.574;2022-09-21T12:12:59;20.20;55.80
8103;DHT22;4094;49.948;11.574;2022-09-21T12:15:38;20.40;55.90
8103;DHT22;4094;49.948;11.574;2022-09-21T12:18:16;20.40;54.60
8103;DHT22;4094;49.948;11.574;2022-09-21T12:20:52;20.40;54.20
8103;DHT22;4094;49.948;11.574;2022-09-21T12:23:28;20.40;54.20
8103;DHT22;4094;49.948;11.574;2022-09-21T12:26:01;20.30;54.00
8103;DHT22;4094;49.948;11.574;2022-09-21T12:28:37;20.20;54.20
8103;DHT22;4094;49.948;11.574;2022-09-21T12:31:13;20.00;54.00
8103;DHT22;4094;49.948;11.574;2022-09-21T12:33:48;19.70;53.80
8103;DHT22;4094;49.948;11.574;2022-09-21T12:36:20;19.60;53.90
8103;DHT22;4094;49.948;11.574;2022-09-21T12:38:57;19.40;54.20
8103;DHT22;4094;49.948;11.574;2022-09-21T12:41:32;19.20;54.30
8103;DHT22;4094;49.948;11.574;2022-09-21T12:44:11;19.00;54.60
8103;DHT22;4094;49.948;11.574;2022-09-21T12:46:46;18.80;54.80
8103;DHT22;4094;49.948;11.574;2022-09-21T12:49:25;18.70;54.70
8103;DHT22;4094;49.948;11.574;2022-09-21T12:52:00;18.50;55.00
8103;DHT22;4094;49.948;11.574;2022-09-21T12:54:38;18.40;55.20
8103;DHT22;4094;49.948;11.574;2022-09-21T12:57:23;18.30;55.30
8103;DHT22;4094;49.948;11.574;2022-09-21T13:00:19;18.20;55.50
8103;DHT22;4094;49.948;11.574;2022-09-21T13:02:52;18.20;55.80
8103;DHT22;4094;49.948;11.574;2022-09-21T13:05:33;18.10;55.50
8103;DHT22;4094;49.948;11.574;2022-09-21T13:08:09;18.10;55.30
8103;DHT22;4094;49.948;11.574;2022-09-21T13:10:46;18.00;55.50
8103;DHT22;4094;49.948;11.574;2022-09-21T13:13:26;18.00;55.50
8103;DHT22;4094;49.948;11.574;2022-09-21T13:15:56;18.00;55.50
8103;DHT22;4094;49.948;11.574;2022-09-21T13:18:28;17.90;55.80
8103;DHT22;4094;49.948;11.574;2022-09-21T13:21:17;17.90;55.80
8103;DHT22;4094;49.948;11.574;2022-09-21T13:23:51;17.80;56.00
8103;DHT22;4094;49.948;11.574;2022-09-21T13:26:33;17.80;55.80
8103;DHT22;4094;49.948;11.574;2022-09-21T13:29:28;17.80;55.80
8103;DHT22;4094;49.948;11.574;2022-09-21T13:31:59;17.80;55.50
8103;DHT22;4094;49.948;11.574;2022-09-21T13:34:32;17.80;54.40
8103;DHT22;4094;49.948;11.574;2022-09-21T13:37:29;17.80;52.20
8103;DHT22;4094;49.948;11.574;2022-09-21T13:43:44;17.70;51.90
8103;DHT22;4094;49.948;11.574;2022-09-21T13:46:45;17.80;53.00
8103;DHT22;4094;49.948;11.574;2022-09-21T13:49:26;17.80;51.60
8103;DHT22;4094;49.948;11.574;2022-09-21T13:52:00;17.80;51.70
8103;DHT22;4094;49.948;11.574;2022-09-21T13:54:32;17.70;52.60
8103;DHT22;4094;49.948;11.574;2022-09-21T13:57:17;17.70;53.00
8103;DHT22;4094;49.948;11.574;2022-09-21T14:03:05;17.70;53.90
8103;DHT22;4094;49.948;11.574;2022-09-21T14:05:39;17.70;53.80
8103;DHT22;4094;49.948;11.574;2022-09-21T14:08:20;17.60;53.80
8103;DHT22;4094;49.948;11.574;2022-09-21T14:10:52;17.60;53.70
8103;DHT22;4094;49.948;11.574;2022-09-21T14:13:30;17.60;53.80
8103;DHT22;4094;49.948;11.574;2022-09-21T14:22:41;17.50;54.50
8103;DHT22;4094;49.948;11.574;2022-09-21T14:25:51;17.50;54.60
8103;DHT22;4094;49.948;11.574;2022-09-21T14:28:31;17.40;54.60
8103;DHT22;4094;49.948;11.574;2022-09-21T14:31:07;17.40;54.70
8103;DHT22;4094;49.948;11.574;2022-09-21T14:33:43;17.40;54.60
8103;DHT22;4094;49.948;11.574;2022-09-21T14:36:17;17.40;54.80
8103;DHT22;4094;49.948;11.574;2022-09-21T14:38:52;17.30;55.00
8103;DHT22;4094;49.948;11.574;2022-09-21T14:41:31;17.40;54.90
8103;DHT22;4094;49.948;11.574;2022-09-21T14:44:04;17.40;55.10
8103;DHT22;4094;49.948;11.574;2022-09-21T14:46:45;17.30;54.80
8103;DHT22;4094;49.948;11.574;2022-09-21T14:49:29;17.40;54.70
8103;DHT22;4094;49.948;11.574;2022-09-21T14:52:11;17.40;54.50
8103;DHT22;4094;49.948;11.574;2022-09-21T14:54:58;17.30;54.30
8103;DHT22;4094;49.948;11.574;2022-09-21T14:57:58;17.40;54.80
8103;DHT22;4094;49.948;11.574;2022-09-21T15:00:37;17.30;54.50
8103;DHT22;4094;49.948;11.574;2022-09-21T15:03:32;17.30;54.60
8103;DHT22;4094;49.948;11.574;2022-09-21T15:06:14;17.30;54.60
8103;DHT22;4094;49.948;11.574;2022-09-21T15:09:23;17.20;54.60
8103;DHT22;4094;49.948;11.574;2022-09-21T15:12:16;17.20;54.60
8103;DHT22;4094;49.948;11.574;2022-09-21T15:14:55;17.20;54.80
8103;DHT22;4094;49.948;11.574;2022-09-21T15:17:28;17.20;54.60
8103;DHT22;4094;49.948;11.574;2022-09-21T15:19:59;17.20;54.70
8103;DHT22;4094;49.948;11.574;2022-09-21T15:22:28;17.20;54.70
8103;DHT22;4094;49.948;11.574;2022-09-21T15:25:03;17.10;54.60
8103;DHT22;4094;49.948;11.574;2022-09-21T15:27:34;17.20;54.40
8103;DHT22;4094;49.948;11.574;2022-09-21T15:30:05;17.10;54.60
8103;DHT22;4094;49.948;11.574;2022-09-21T15:32:36;17.10;54.50
8103;DHT22;4094;49.948;11.574;2022-09-21T15:35:15;17.10;54.10
8103;DHT22;4094;49.948;11.574;2022-09-21T15:37:45;17.10;53.90
8103;DHT22;4094;49.948;11.574;2022-09-21T15:40:17;17.10;54.00
8103;DHT22;4094;49.948;11.574;2022-09-21T15:43:00;17.10;53.90
8103;DHT22;4094;49.948;11.574;2022-09-21T15:45:33;17.00;53.80
8103;DHT22;4094;49.948;11.574;2022-09-21T15:48:06;17.00;53.90
8103;DHT22;4094;49.948;11.574;2022-09-21T15:50:40;17.00;53.80
8103;DHT22;4094;49.948;11.574;2022-09-21T15:53:15;17.00;53.80
8103;DHT22;4094;49.948;11.574;2022-09-21T15:55:46;17.00;54.00
8103;DHT22;4094;49.948;11.574;2022-09-21T15:58:29;17.00;53.80
8103;DHT22;4094;49.948;11.574;2022-09-21T16:01:09;17.00;53.60
8103;DHT22;4094;49.948;11.574;2022-09-21T16:03:39;17.00;53.90
8103;DHT22;4094;49.948;11.574;2022-09-21T16:06:24;17.00;54.00
8103;DHT22;4094;49.948;11.574;2022-09-21T16:08:53;16.90;53.90
8103;DHT22;4094;49.948;11.574;2022-09-21T16:11:33;16.90;54.10
8103;DHT22;4094;49.948;11.574;2022-09-21T16:14:10;16.90;54.10
8103;DHT22;4094;49.948;11.574;2022-09-21T16:17:21;16.90;54.20
8103;DHT22;4094;49.948;11.574;2022-09-21T16:20:13;16.90;54.30
8103;DHT22;4094;49.948;11.574;2022-09-21T16:22:45;16.80;54.10
8103;DHT22;4094;49.948;11.574;2022-09-21T16:25:29;16.80;54.50
8103;DHT22;4094;49.948;11.574;2022-09-21T16:28:03;16.80;54.30
8103;DHT22;4094;49.948;11.574;2022-09-21T16:30:44;16.80;54.50
8103;DHT22;4094;49.948;11.574;2022-09-21T16:33:37;16.70;54.50
8103;DHT22;4094;49.948;11.574;2022-09-21T16:36:32;16.70;54.60
8103;DHT22;4094;49.948;11.574;2022-09-21T16:39:01;16.70;54.70
8103;DHT22;4094;49.948;11.574;2022-09-21T16:41:34;16.70;55.00
8103;DHT22;4094;49.948;11.574;2022-09-21T16:44:08;16.70;55.10
8103;DHT22;4094;49.948;11.574;2022-09-21T16:46:40;16.60;55.50
8103;DHT22;4094;49.948;11.574;2022-09-21T16:49:17;16.60;55.70
8103;DHT22;4094;49.948;11.574;2022-09-21T16:51:47;16.60;55.70
8103;DHT22;4094;49.948;11.574;2022-09-21T16:54:17;16.50;55.80